KRUT

Rutland - Southern Vermont Regional Airport

Rutland, Vermont, USA
KRUT 221325Z 2213/2312 VRB04KT P6SM SKC TEMPO 2213/2215 1SM BR FM230000 15005KT P6SM OVC090
Issued Valid From Valid To
Jan-22 @ 13:25 UTC
(4 hours ago)
Jan-22 @ 13:00 UTC
(5 hours ago)
Jan-23 @ 12:00 UTC
(in 18 hours)
Jan-22 @ 13:00 to Jan-23 @ 00:00
KRUT 221325Z 2213/2312 VRB04KT P6SM SKC
Wind Visibility Clouds
Variable at 4 knots Greater than 6 miles
  • Clear skies
Expired Click to View Jan-22 @ 13:00 to Jan-22 @ 15:00
TEMPO 2213/2215 1SM BR
Visibility Conditions
1 miles
  • Mist
From Jan-23 @ 00:00 to Jan-23 @ 12:00
FM230000 15005KT P6SM OVC090
Wind Visibility Clouds
150° at 5 knots Greater than 6 miles
  • Overcast at 9,000' AGL
KRUT 221325Z 2213/2312 VRB04KT P6SM SKC TEMPO 2213/2215 1SM BR FM230000 15005KT P6SM OVC090
Issued Jan-22 @ 13:25 UTC
(4 hours ago)
Valid From Jan-22 @ 13:00 UTC
(5 hours ago)
Valid To Jan-23 @ 12:00 UTC
(in 18 hours)
Jan-22 @ 13:00 - Jan-23 @ 00:00
Wind Visibility
Variable at 4 knots Greater than 6 miles
Clouds
  • Clear skies
Jan-22 @ 13:00 - Jan-22 @ 15:00
Conditions
  • Mist
From Jan-23 @ 00:00 - Jan-23 @ 12:00
Wind Visibility
150° at 5 knots Greater than 6 miles
Clouds
  • Overcast at 9,000' AGL